createdAt,value
2022-08-21T00:01:33.485Z,1.60
2022-08-21T00:03:59.940Z,1.10
2022-08-21T00:06:26.415Z,1.35
2022-08-21T00:08:52.872Z,1.20
2022-08-21T00:11:19.348Z,1.05
2022-08-21T00:13:45.814Z,1.35
2022-08-21T00:16:12.280Z,0.68
2022-08-21T00:18:38.746Z,0.70
2022-08-21T00:21:05.228Z,1.20
2022-08-21T00:23:31.683Z,1.58
2022-08-21T00:25:58.161Z,1.35
2022-08-21T00:28:24.629Z,1.05
2022-08-21T00:30:51.101Z,1.10
2022-08-21T00:33:17.566Z,1.00
2022-08-21T00:35:44.051Z,1.35
2022-08-21T00:38:10.516Z,1.00
2022-08-21T00:40:36.997Z,0.80
2022-08-21T00:43:03.601Z,1.50
2022-08-21T00:45:30.121Z,0.93
2022-08-21T00:47:56.582Z,0.75
2022-08-21T00:50:23.063Z,0.80
2022-08-21T00:52:49.527Z,1.17
2022-08-21T00:55:16.621Z,1.00
2022-08-21T00:57:43.087Z,0.85
2022-08-21T01:00:09.559Z,0.60
2022-08-21T01:02:36.016Z,0.68
2022-08-21T01:05:02.500Z,0.93
2022-08-21T01:07:28.954Z,0.90
2022-08-21T01:09:55.438Z,0.60
2022-08-21T01:12:21.931Z,0.60
2022-08-21T01:14:48.420Z,0.60
2022-08-21T01:17:14.877Z,0.73
2022-08-21T01:19:41.326Z,0.80
2022-08-21T01:22:07.791Z,1.00
2022-08-21T01:24:34.254Z,1.20
2022-08-21T01:27:00.725Z,1.10
2022-08-21T01:29:27.207Z,1.33
2022-08-21T01:31:53.683Z,1.10
2022-08-21T01:34:20.151Z,1.10
2022-08-21T01:36:46.629Z,0.75
2022-08-21T01:39:13.126Z,0.32
2022-08-21T01:41:39.621Z,0.60
2022-08-21T01:44:06.085Z,0.52
2022-08-21T01:46:32.561Z,0.73
2022-08-21T01:48:59.017Z,0.90
2022-08-21T01:51:25.485Z,0.90
2022-08-21T01:53:51.949Z,1.05
2022-08-21T01:56:18.426Z,1.20
2022-08-21T01:58:44.887Z,0.93
2022-08-21T02:01:11.425Z,0.90
2022-08-21T02:03:37.949Z,0.77
2022-08-21T02:06:04.447Z,0.73
2022-08-21T02:08:30.904Z,0.65
2022-08-21T02:10:57.374Z,0.82
2022-08-21T02:13:23.836Z,0.90
2022-08-21T02:15:50.310Z,0.90
2022-08-21T02:18:16.810Z,1.20
2022-08-21T02:20:44.189Z,1.20
2022-08-21T02:23:10.660Z,1.02
2022-08-21T02:25:37.124Z,1.30
2022-08-21T02:28:03.603Z,0.90
2022-08-21T02:30:30.062Z,0.90
2022-08-21T02:32:56.696Z,1.00
2022-08-21T02:35:23.279Z,0.63
2022-08-21T02:37:49.752Z,1.00
2022-08-21T02:40:16.254Z,0.73
2022-08-21T02:42:42.758Z,0.63
2022-08-21T02:45:09.215Z,0.60
2022-08-21T02:47:35.680Z,0.57
2022-08-21T02:50:02.146Z,0.68
2022-08-21T02:52:28.634Z,0.70
2022-08-21T02:54:55.093Z,0.47
2022-08-21T02:57:21.561Z,0.80
2022-08-21T02:59:48.030Z,0.82
2022-08-21T03:02:14.507Z,0.90
2022-08-21T03:04:46.048Z,0.90
2022-08-21T03:07:13.103Z,1.20
2022-08-21T03:09:39.592Z,1.20
2022-08-21T03:12:17.282Z,1.48
2022-08-21T03:14:43.745Z,2.33
2022-08-21T03:17:10.227Z,1.48
2022-08-21T03:19:36.694Z,1.15
2022-08-21T03:22:03.173Z,1.30
2022-08-21T03:24:29.636Z,1.27
2022-08-21T03:26:56.244Z,1.33
2022-08-21T03:29:22.722Z,1.10
2022-08-21T03:31:49.197Z,1.10
2022-08-21T03:34:15.712Z,1.05
2022-08-21T03:36:42.195Z,1.08
2022-08-21T03:39:08.657Z,0.70
2022-08-21T03:41:35.138Z,0.88
2022-08-21T03:44:01.598Z,0.75
2022-08-21T03:46:28.065Z,0.60
2022-08-21T03:48:54.549Z,0.80
2022-08-21T03:51:21.009Z,0.70
2022-08-21T03:53:47.489Z,0.75
2022-08-21T03:56:13.958Z,0.80
2022-08-21T03:58:40.425Z,0.98
2022-08-21T04:01:06.886Z,1.08
2022-08-21T04:03:33.359Z,1.08
2022-08-21T04:05:59.812Z,1.40
2022-08-21T04:08:26.298Z,1.40
2022-08-21T04:10:52.764Z,1.10
2022-08-21T04:13:19.244Z,1.10
2022-08-21T04:15:45.703Z,1.30
2022-08-21T04:18:12.168Z,1.30
2022-08-21T04:20:38.625Z,1.20
2022-08-21T04:23:05.079Z,1.23
2022-08-21T04:25:31.536Z,1.30
2022-08-21T04:27:58.002Z,1.00
2022-08-21T04:30:28.599Z,0.80
2022-08-21T04:32:55.319Z,0.68
2022-08-21T04:35:22.798Z,0.90
2022-08-21T04:37:49.273Z,0.98
2022-08-21T04:40:15.813Z,0.90
2022-08-21T04:42:42.332Z,1.05
2022-08-21T04:45:08.804Z,0.88
2022-08-21T04:47:41.751Z,1.15
2022-08-21T04:50:19.434Z,1.05
2022-08-21T04:52:45.904Z,1.30
2022-08-21T04:55:12.387Z,1.00
2022-08-21T04:57:48.877Z,1.50
2022-08-21T05:00:15.804Z,1.20
2022-08-21T05:02:42.283Z,1.50
2022-08-21T05:05:08.742Z,1.50
2022-08-21T05:07:42.412Z,2.20
2022-08-21T05:10:09.553Z,1.83
2022-08-21T05:12:36.008Z,1.77
2022-08-21T05:15:03.382Z,1.38
2022-08-21T05:17:29.849Z,1.55
2022-08-21T05:19:56.321Z,1.40
2022-08-21T05:22:22.789Z,1.80
2022-08-21T05:24:49.269Z,1.30
2022-08-21T05:27:17.820Z,1.70
2022-08-21T05:29:44.377Z,1.80
2022-08-21T05:32:10.835Z,1.60
2022-08-21T05:34:37.312Z,2.67
2022-08-21T05:37:07.489Z,2.00
2022-08-21T05:40:04.576Z,1.60
2022-08-21T05:42:20.720Z,1.83
2022-08-21T05:44:47.195Z,2.15
2022-08-21T05:47:15.261Z,2.30
2022-08-21T05:49:41.739Z,1.95
2022-08-21T05:52:08.202Z,1.83
2022-08-21T05:54:34.683Z,1.65
2022-08-21T05:57:01.141Z,1.40
2022-08-21T05:59:27.604Z,0.95
2022-08-21T06:01:54.151Z,1.60
2022-08-21T06:04:20.655Z,1.30
2022-08-21T06:06:47.120Z,1.10
2022-08-21T06:09:13.594Z,0.98
2022-08-21T06:11:40.048Z,1.50
2022-08-21T06:14:06.519Z,1.08
2022-08-21T06:16:32.978Z,0.80
2022-08-21T06:19:02.856Z,0.60
2022-08-21T06:21:29.712Z,1.00
2022-08-21T06:23:56.188Z,0.90
2022-08-21T06:26:22.656Z,1.10
2022-08-21T06:28:49.138Z,1.17
2022-08-21T06:31:15.606Z,0.85
2022-08-21T06:33:42.089Z,0.90
2022-08-21T06:36:08.562Z,0.63
2022-08-21T06:38:35.029Z,1.13
2022-08-21T06:41:02.373Z,0.80
2022-08-21T06:43:39.264Z,0.80
2022-08-21T06:46:06.547Z,0.85
2022-08-21T06:48:33.023Z,0.70
2022-08-21T06:50:59.504Z,1.10
2022-08-21T06:53:25.976Z,1.08
2022-08-21T06:55:52.454Z,0.82
2022-08-21T06:58:18.931Z,1.42
2022-08-21T07:00:45.409Z,0.88
2022-08-21T07:03:11.872Z,1.20
2022-08-21T07:05:38.349Z,1.10
2022-08-21T07:08:04.814Z,1.08
2022-08-21T07:10:31.290Z,1.25
2022-08-21T07:13:00.796Z,0.90
2022-08-21T07:15:27.952Z,0.80
2022-08-21T07:17:54.433Z,0.60
2022-08-21T07:20:20.902Z,0.90
2022-08-21T07:22:47.356Z,0.80
2022-08-21T07:25:13.825Z,0.80
2022-08-21T07:27:40.292Z,0.80
2022-08-21T07:30:06.762Z,1.00
2022-08-21T07:32:33.232Z,1.90
2022-08-21T07:34:59.696Z,0.85
2022-08-21T07:37:26.152Z,0.90
2022-08-21T07:39:52.680Z,1.20
2022-08-21T07:42:19.173Z,1.60
2022-08-21T07:44:45.684Z,1.38
2022-08-21T07:47:12.135Z,1.50
2022-08-21T07:49:38.610Z,0.95
2022-08-21T07:52:05.081Z,1.30
2022-08-21T07:54:34.557Z,0.98
2022-08-21T07:57:01.147Z,1.20
2022-08-21T07:59:27.629Z,1.65
2022-08-21T08:01:54.106Z,1.58
2022-08-21T08:04:25.780Z,1.38
2022-08-21T08:06:52.896Z,1.17
2022-08-21T08:09:19.355Z,1.20
2022-08-21T08:11:45.842Z,2.40
2022-08-21T08:14:12.301Z,1.88
2022-08-21T08:16:38.780Z,1.80
2022-08-21T08:19:05.233Z,1.98
2022-08-21T08:21:31.696Z,1.92
2022-08-21T08:24:01.065Z,1.17
2022-08-21T08:26:45.325Z,1.20
2022-08-21T08:29:19.930Z,1.35
2022-08-21T08:31:46.409Z,1.08
2022-08-21T08:34:12.880Z,1.30
2022-08-21T08:36:50.139Z,1.58
2022-08-21T08:39:26.900Z,1.00
2022-08-21T08:41:58.652Z,1.25
2022-08-21T08:44:25.277Z,1.65
2022-08-21T08:46:57.549Z,0.80
2022-08-21T08:49:24.087Z,1.63
2022-08-21T08:51:52.886Z,2.40
2022-08-21T08:54:19.595Z,2.08
2022-08-21T08:56:46.066Z,1.20
2022-08-21T08:59:12.531Z,1.45
2022-08-21T09:01:39.420Z,1.17
2022-08-21T09:04:05.963Z,1.65
2022-08-21T09:06:32.442Z,1.10
2022-08-21T09:08:58.907Z,1.45
2022-08-21T09:11:25.394Z,0.80
2022-08-21T09:13:51.857Z,0.73
2022-08-21T09:16:18.308Z,1.30
2022-08-21T09:18:44.785Z,0.90
2022-08-21T09:21:11.241Z,0.85
2022-08-21T09:23:37.703Z,0.88
2022-08-21T09:26:04.157Z,0.73
2022-08-21T09:28:30.633Z,1.08
2022-08-21T09:30:57.091Z,1.30
2022-08-21T09:33:23.557Z,0.98
2022-08-21T09:35:50.017Z,0.60
2022-08-21T09:38:16.497Z,0.90
2022-08-21T09:40:42.949Z,0.75
2022-08-21T09:43:09.400Z,0.60
2022-08-21T09:45:35.868Z,1.08
2022-08-21T09:48:02.329Z,0.95
2022-08-21T09:50:28.795Z,0.60
2022-08-21T09:52:56.753Z,0.63
2022-08-21T09:55:23.287Z,0.47
2022-08-21T09:57:50.244Z,0.93
2022-08-21T10:00:17.236Z,0.88
2022-08-21T10:02:43.732Z,1.05
2022-08-21T10:05:10.192Z,0.95
2022-08-21T10:07:36.675Z,0.70
2022-08-21T10:10:03.146Z,0.65
2022-08-21T10:12:29.610Z,0.80
2022-08-21T10:14:56.083Z,0.52
2022-08-21T10:17:22.544Z,0.75
2022-08-21T10:19:49.013Z,0.88
2022-08-21T10:22:15.476Z,0.80
2022-08-21T10:24:41.942Z,1.10
2022-08-21T10:27:08.414Z,0.70
2022-08-21T10:29:34.885Z,0.82
2022-08-21T10:32:01.359Z,0.80
2022-08-21T10:34:27.812Z,0.80
2022-08-21T10:36:54.292Z,0.90
2022-08-21T10:39:34.980Z,0.50
2022-08-21T10:42:02.780Z,0.60
2022-08-21T10:44:29.235Z,0.90
2022-08-21T10:46:55.704Z,1.08
2022-08-21T10:49:22.180Z,1.00
2022-08-21T10:51:48.635Z,0.98
2022-08-21T10:54:15.101Z,0.73
2022-08-21T10:56:41.552Z,0.75
2022-08-21T10:59:10.533Z,0.98
2022-08-21T11:01:36.994Z,0.88
2022-08-21T11:04:03.444Z,0.93
2022-08-21T11:06:32.108Z,1.10
2022-08-21T11:08:58.564Z,0.98
2022-08-21T11:11:25.252Z,0.70
2022-08-21T11:13:57.511Z,0.80
2022-08-21T11:16:23.989Z,0.70
2022-08-21T11:18:50.448Z,0.60
2022-08-21T11:21:16.929Z,0.50
2022-08-21T11:23:43.392Z,0.50
2022-08-21T11:26:09.862Z,0.73
2022-08-21T11:28:36.323Z,0.70
2022-08-21T11:31:02.817Z,0.77
2022-08-21T11:33:29.275Z,0.65
2022-08-21T11:35:55.908Z,0.85
2022-08-21T11:38:22.371Z,0.80
2022-08-21T11:40:48.832Z,1.30
2022-08-21T11:43:15.328Z,0.90
2022-08-21T11:45:41.784Z,0.82
2022-08-21T11:48:08.263Z,0.70
2022-08-21T11:50:36.131Z,0.45
2022-08-21T11:53:02.883Z,0.47
2022-08-21T11:55:29.347Z,0.50
2022-08-21T11:57:55.824Z,0.40
2022-08-21T12:00:22.282Z,0.82
2022-08-21T12:02:48.816Z,0.38
2022-08-21T12:05:15.361Z,0.30
2022-08-21T12:07:41.841Z,0.57
2022-08-21T12:10:08.316Z,0.70
2022-08-21T12:12:34.795Z,0.93
2022-08-21T12:15:01.268Z,0.90
2022-08-21T12:17:27.732Z,0.50
2022-08-21T12:19:54.209Z,0.98
2022-08-21T12:22:20.700Z,0.60
2022-08-21T12:24:49.302Z,0.50
2022-08-21T12:27:15.777Z,0.65
2022-08-21T12:29:42.247Z,0.90
2022-08-21T12:32:08.708Z,0.90
2022-08-21T12:34:35.183Z,0.75
2022-08-21T12:37:01.649Z,0.95
2022-08-21T12:39:28.130Z,0.60
2022-08-21T12:41:56.193Z,0.57
2022-08-21T12:44:25.448Z,0.70
2022-08-21T12:46:51.927Z,0.77
2022-08-21T12:49:18.397Z,0.88
2022-08-21T12:51:44.872Z,0.85
2022-08-21T12:54:11.332Z,0.70
2022-08-21T12:56:37.825Z,0.52
2022-08-21T12:59:04.283Z,0.68
2022-08-21T13:01:30.811Z,1.02
2022-08-21T13:04:04.279Z,0.60
2022-08-21T13:06:31.658Z,0.95
2022-08-21T13:08:58.125Z,0.85
2022-08-21T13:11:32.686Z,1.20
2022-08-21T13:14:03.089Z,1.10
2022-08-21T13:16:31.872Z,1.13
2022-08-21T13:18:58.505Z,0.93
2022-08-21T13:21:24.961Z,0.80
2022-08-21T13:23:51.436Z,0.80
2022-08-21T13:26:18.846Z,0.30
2022-08-21T13:28:45.478Z,0.60
2022-08-21T13:31:12.234Z,0.50
2022-08-21T13:33:38.707Z,0.90
2022-08-21T13:36:05.167Z,0.85
2022-08-21T13:38:31.636Z,0.70
2022-08-21T13:40:58.121Z,0.65
2022-08-21T13:43:24.584Z,0.40
2022-08-21T13:45:51.057Z,0.80
2022-08-21T13:48:17.518Z,0.75
2022-08-21T13:50:43.994Z,0.90
2022-08-21T13:53:10.456Z,0.60
2022-08-21T13:55:36.932Z,0.98
2022-08-21T13:58:03.416Z,0.90
2022-08-21T14:00:29.929Z,0.70
2022-08-21T14:02:56.387Z,0.98
2022-08-21T14:05:22.865Z,0.85
2022-08-21T14:07:49.320Z,0.93
2022-08-21T14:10:15.790Z,0.70
2022-08-21T14:12:42.289Z,0.60
2022-08-21T14:15:08.781Z,0.80
2022-08-21T14:17:35.296Z,0.80
2022-08-21T14:20:01.754Z,0.85
2022-08-21T14:22:28.229Z,0.60
2022-08-21T14:24:55.187Z,0.50
2022-08-21T14:27:21.792Z,0.63
2022-08-21T14:29:48.252Z,0.77
2022-08-21T14:32:21.933Z,0.95
2022-08-21T14:34:52.004Z,0.60
2022-08-21T14:37:18.641Z,1.05
2022-08-21T14:39:45.400Z,0.50
2022-08-21T14:42:11.970Z,0.45
2022-08-21T14:44:38.440Z,0.57
2022-08-21T14:47:04.920Z,0.57
2022-08-21T14:49:31.391Z,0.60
2022-08-21T14:51:58.100Z,0.75
2022-08-21T14:54:31.241Z,0.40
2022-08-21T14:56:58.518Z,0.50
2022-08-21T14:59:24.981Z,0.50
2022-08-21T15:01:51.529Z,0.60
2022-08-21T15:04:18.061Z,1.05
2022-08-21T15:06:44.531Z,1.10
2022-08-21T15:09:10.989Z,1.30
2022-08-21T15:11:41.853Z,1.50
2022-08-21T15:14:09.494Z,1.30
2022-08-21T15:16:35.967Z,1.20
2022-08-21T15:19:02.429Z,1.42
2022-08-21T15:21:28.929Z,1.23
2022-08-21T15:23:55.400Z,0.85
2022-08-21T15:26:21.870Z,0.95
2022-08-21T15:28:48.345Z,1.25
2022-08-21T15:31:14.811Z,1.38
2022-08-21T15:33:41.282Z,1.00
2022-08-21T15:36:07.755Z,1.50
2022-08-21T15:38:34.225Z,1.20
2022-08-21T15:41:00.693Z,1.23
2022-08-21T15:43:29.931Z,2.03
2022-08-21T15:45:57.004Z,1.80
2022-08-21T15:48:23.473Z,1.95
2022-08-21T15:50:49.942Z,2.10
2022-08-21T15:53:16.413Z,2.05
2022-08-21T15:55:42.869Z,2.10
2022-08-21T15:58:09.344Z,2.05
2022-08-21T16:00:35.811Z,1.70
2022-08-21T16:03:02.285Z,1.88
2022-08-21T16:05:28.752Z,1.50
2022-08-21T16:07:55.231Z,1.77
2022-08-21T16:10:21.707Z,1.50
2022-08-21T16:12:48.173Z,1.58
2022-08-21T16:15:20.601Z,1.67
2022-08-21T16:17:47.241Z,1.67
2022-08-21T16:20:13.709Z,2.20
2022-08-21T16:22:44.833Z,2.03
2022-08-21T16:25:11.569Z,2.25
2022-08-21T16:27:38.319Z,1.90
2022-08-21T16:30:06.627Z,1.30
2022-08-21T16:32:33.093Z,1.88
2022-08-21T16:34:59.572Z,1.60
2022-08-21T16:37:26.037Z,1.80
2022-08-21T16:39:52.541Z,1.80
2022-08-21T16:42:21.772Z,1.80
2022-08-21T16:44:49.348Z,2.45
2022-08-21T16:47:26.922Z,2.00
2022-08-21T16:49:53.941Z,1.45
2022-08-21T16:52:20.406Z,1.02
2022-08-21T16:54:46.886Z,1.48
2022-08-21T16:57:13.341Z,1.33
2022-08-21T16:59:39.812Z,1.35
2022-08-21T17:02:06.272Z,1.40
2022-08-21T17:04:32.748Z,1.20
2022-08-21T17:06:59.212Z,1.20
2022-08-21T17:09:25.684Z,1.42
2022-08-21T17:11:52.144Z,2.25
2022-08-21T17:14:18.610Z,1.55
2022-08-21T17:16:45.071Z,1.20
2022-08-21T17:19:11.546Z,1.60
2022-08-21T17:21:37.999Z,1.50
2022-08-21T17:24:04.472Z,1.10
2022-08-21T17:26:30.936Z,1.20
2022-08-21T17:28:57.406Z,1.50
2022-08-21T17:31:23.856Z,1.48
2022-08-21T17:33:50.321Z,1.17
2022-08-21T17:36:16.806Z,1.00
2022-08-21T17:38:43.267Z,0.90
2022-08-21T17:41:09.934Z,1.08
2022-08-21T17:43:36.399Z,1.00
2022-08-21T17:46:02.868Z,1.25
2022-08-21T17:48:29.330Z,1.13
2022-08-21T17:50:55.812Z,1.30
2022-08-21T17:53:22.284Z,1.10
2022-08-21T17:55:48.773Z,0.80
2022-08-21T17:58:15.242Z,0.82
2022-08-21T18:00:41.764Z,1.08
2022-08-21T18:03:08.293Z,0.60
2022-08-21T18:05:34.776Z,0.80
2022-08-21T18:08:01.235Z,1.02
2022-08-21T18:10:27.705Z,0.85
2022-08-21T18:12:54.168Z,0.85
2022-08-21T18:15:20.649Z,0.80
2022-08-21T18:17:47.109Z,0.93
2022-08-21T18:20:13.576Z,0.90
2022-08-21T18:22:40.036Z,1.08
2022-08-21T18:25:06.501Z,0.93
2022-08-21T18:27:32.971Z,0.85
2022-08-21T18:29:59.449Z,0.85
2022-08-21T18:32:31.648Z,0.73
2022-08-21T18:34:58.650Z,0.50
2022-08-21T18:37:25.111Z,0.77
2022-08-21T18:39:51.633Z,0.90
2022-08-21T18:42:18.619Z,0.70
2022-08-21T18:44:45.091Z,0.77
2022-08-21T18:47:11.551Z,0.73
2022-08-21T18:49:38.769Z,0.80
2022-08-21T18:52:05.246Z,1.00
2022-08-21T18:54:31.706Z,0.90
2022-08-21T18:56:58.186Z,0.70
2022-08-21T18:59:24.650Z,0.70
2022-08-21T19:01:51.131Z,0.40
2022-08-21T19:04:40.923Z,0.60
2022-08-21T19:07:04.046Z,0.40
2022-08-21T19:09:30.513Z,0.68
2022-08-21T19:11:57.692Z,0.70
2022-08-21T19:14:24.159Z,0.95
2022-08-21T19:16:51.488Z,0.80
2022-08-21T19:19:17.951Z,1.17
2022-08-21T19:21:44.427Z,0.82
2022-08-21T19:24:17.205Z,0.85
2022-08-21T19:26:44.446Z,0.40
2022-08-21T19:29:10.906Z,0.70
2022-08-21T19:31:37.386Z,1.00
2022-08-21T19:34:04.624Z,0.88
2022-08-21T19:36:31.093Z,0.80
2022-08-21T19:38:57.857Z,0.70
2022-08-21T19:41:25.200Z,0.88
2022-08-21T19:43:51.693Z,1.10
2022-08-21T19:46:18.174Z,0.88
2022-08-21T19:48:46.737Z,0.90
2022-08-21T19:51:13.403Z,1.10
2022-08-21T19:53:39.861Z,1.00
2022-08-21T19:56:06.338Z,0.95
2022-08-21T19:58:32.793Z,0.80
2022-08-21T20:00:59.306Z,0.77
2022-08-21T20:03:25.795Z,0.70
2022-08-21T20:05:53.952Z,1.00
2022-08-21T20:08:20.789Z,0.93
2022-08-21T20:10:47.277Z,0.52
2022-08-21T20:13:16.495Z,1.08
2022-08-21T20:15:42.953Z,1.10
2022-08-21T20:18:09.644Z,1.10
2022-08-21T20:20:38.588Z,1.05
2022-08-21T20:23:10.646Z,0.90
2022-08-21T20:25:37.502Z,1.10
2022-08-21T20:28:05.074Z,0.93
2022-08-21T20:30:31.532Z,1.08
2022-08-21T20:32:58.126Z,1.10
2022-08-21T20:35:24.710Z,1.33
2022-08-21T20:37:59.015Z,1.30
2022-08-21T20:40:29.214Z,1.10
2022-08-21T20:42:59.151Z,1.10
2022-08-21T20:45:26.641Z,1.08
2022-08-21T20:47:53.114Z,0.77
2022-08-21T20:50:19.584Z,0.82
2022-08-21T20:52:46.071Z,0.55
2022-08-21T20:55:12.531Z,0.60
2022-08-21T20:57:39.188Z,0.57
2022-08-21T21:00:05.689Z,0.38
2022-08-21T21:02:32.163Z,0.47
2022-08-21T21:04:58.628Z,0.77
2022-08-21T21:07:25.372Z,0.50
2022-08-21T21:09:52.583Z,1.08
2022-08-21T21:12:19.045Z,0.90
2022-08-21T21:14:54.517Z,1.20
2022-08-21T21:17:28.282Z,1.23
2022-08-21T21:19:55.190Z,1.23
2022-08-21T21:22:21.655Z,1.10
2022-08-21T21:24:51.536Z,1.27
2022-08-21T21:27:18.901Z,1.60
2022-08-21T21:29:45.973Z,1.20
2022-08-21T21:32:17.893Z,1.10
2022-08-21T21:34:44.903Z,1.20
2022-08-21T21:37:11.368Z,1.02
2022-08-21T21:39:38.474Z,1.63
2022-08-21T21:42:06.162Z,1.20
2022-08-21T21:44:32.649Z,1.23
2022-08-21T21:46:59.108Z,1.42
2022-08-21T21:49:25.578Z,1.65
2022-08-21T21:51:55.780Z,1.27
2022-08-21T21:57:12.607Z,1.15
2022-08-21T21:59:40.493Z,0.98
2022-08-21T22:02:06.994Z,0.77
2022-08-21T22:04:33.467Z,1.15
2022-08-21T22:06:59.945Z,1.23
2022-08-21T22:09:26.673Z,1.70
2022-08-21T22:11:56.100Z,1.20
2022-08-21T22:14:22.777Z,1.33
2022-08-21T22:16:49.380Z,1.23
2022-08-21T22:19:15.862Z,1.40
2022-08-21T22:21:42.334Z,1.27
2022-08-21T22:24:11.550Z,1.30
2022-08-21T22:26:38.248Z,1.00
2022-08-21T22:29:05.720Z,0.90
2022-08-21T22:31:33.240Z,0.77
2022-08-21T22:33:59.712Z,0.75
2022-08-21T22:36:26.193Z,0.85
2022-08-21T22:38:53.127Z,0.93
2022-08-21T22:41:19.853Z,0.80
2022-08-21T22:43:46.845Z,0.88
2022-08-21T22:46:13.881Z,0.75
2022-08-21T22:48:46.564Z,0.88
2022-08-21T22:51:13.122Z,0.52
2022-08-21T22:53:39.593Z,0.70
2022-08-21T22:56:06.054Z,0.52
2022-08-21T22:58:32.542Z,0.75
2022-08-21T23:00:59.003Z,0.73
2022-08-21T23:03:25.542Z,0.70
2022-08-21T23:05:52.062Z,0.93
2022-08-21T23:08:24.285Z,0.93
2022-08-21T23:10:51.199Z,0.60
2022-08-21T23:13:19.133Z,1.60
2022-08-21T23:15:45.664Z,0.82
2022-08-21T23:18:12.254Z,0.90
2022-08-21T23:20:39.964Z,0.88
2022-08-21T23:23:08.824Z,1.25
2022-08-21T23:25:35.446Z,1.10
2022-08-21T23:28:03.810Z,0.93
2022-08-21T23:30:30.489Z,1.10
2022-08-21T23:32:57.384Z,0.80
2022-08-21T23:35:26.891Z,0.80
2022-08-21T23:37:53.372Z,1.02
2022-08-21T23:40:19.860Z,0.85
2022-08-21T23:42:46.768Z,0.90
2022-08-21T23:45:17.341Z,0.90
2022-08-21T23:47:44.296Z,1.10
2022-08-21T23:50:17.443Z,1.17
2022-08-21T23:52:43.921Z,1.15
2022-08-21T23:55:11.830Z,1.00
2022-08-21T23:57:38.387Z,1.10
